sensor_id;sensor_type;location;lat;lon;timestamp;P1;durP1;ratioP1;P2;durP2;ratioP2
3589;SDS011;1809;48.470;9.226;2023-01-23T00:00:55;24.43;;;15.43;;
3589;SDS011;1809;48.470;9.226;2023-01-23T00:03:22;24.27;;;15.40;;
3589;SDS011;1809;48.470;9.226;2023-01-23T00:06:00;28.03;;;14.20;;
3589;SDS011;1809;48.470;9.226;2023-01-23T00:11:04;35.07;;;18.53;;
3589;SDS011;1809;48.470;9.226;2023-01-23T00:13:31;29.23;;;16.77;;
3589;SDS011;1809;48.470;9.226;2023-01-23T00:15:56;29.30;;;16.03;;
3589;SDS011;1809;48.470;9.226;2023-01-23T00:18:21;31.40;;;17.10;;
3589;SDS011;1809;48.470;9.226;2023-01-23T00:20:48;31.27;;;17.60;;
3589;SDS011;1809;48.470;9.226;2023-01-23T00:23:13;28.60;;;16.20;;
3589;SDS011;1809;48.470;9.226;2023-01-23T00:25:39;27.10;;;15.83;;
3589;SDS011;1809;48.470;9.226;2023-01-23T00:28:04;26.83;;;16.23;;
3589;SDS011;1809;48.470;9.226;2023-01-23T00:30:30;30.67;;;15.57;;
3589;SDS011;1809;48.470;9.226;2023-01-23T00:32:55;29.80;;;16.17;;
3589;SDS011;1809;48.470;9.226;2023-01-23T00:35:21;27.03;;;16.77;;
3589;SDS011;1809;48.470;9.226;2023-01-23T00:37:46;32.10;;;17.20;;
3589;SDS011;1809;48.470;9.226;2023-01-23T00:40:12;29.13;;;16.63;;
3589;SDS011;1809;48.470;9.226;2023-01-23T00:42:37;29.57;;;16.20;;
3589;SDS011;1809;48.470;9.226;2023-01-23T00:45:04;30.83;;;16.00;;
3589;SDS011;1809;48.470;9.226;2023-01-23T00:47:30;27.30;;;16.10;;
3589;SDS011;1809;48.470;9.226;2023-01-23T00:49:55;29.23;;;15.00;;
3589;SDS011;1809;48.470;9.226;2023-01-23T00:52:22;29.47;;;16.00;;
3589;SDS011;1809;48.470;9.226;2023-01-23T00:54:48;28.23;;;15.70;;
3589;SDS011;1809;48.470;9.226;2023-01-23T00:57:13;30.50;;;16.33;;
3589;SDS011;1809;48.470;9.226;2023-01-23T00:59:39;39.07;;;18.37;;
3589;SDS011;1809;48.470;9.226;2023-01-23T01:02:04;38.33;;;18.70;;
3589;SDS011;1809;48.470;9.226;2023-01-23T01:04:30;32.50;;;17.37;;
3589;SDS011;1809;48.470;9.226;2023-01-23T01:06:55;34.27;;;18.47;;
3589;SDS011;1809;48.470;9.226;2023-01-23T01:09:20;40.83;;;18.50;;
3589;SDS011;1809;48.470;9.226;2023-01-23T01:11:46;34.33;;;16.53;;
3589;SDS011;1809;48.470;9.226;2023-01-23T01:14:11;35.87;;;17.40;;
3589;SDS011;1809;48.470;9.226;2023-01-23T01:16:36;34.90;;;17.57;;
3589;SDS011;1809;48.470;9.226;2023-01-23T01:19:02;33.47;;;17.90;;
3589;SDS011;1809;48.470;9.226;2023-01-23T01:21:29;27.87;;;15.80;;
3589;SDS011;1809;48.470;9.226;2023-01-23T01:23:54;39.20;;;20.30;;
3589;SDS011;1809;48.470;9.226;2023-01-23T01:26:20;32.53;;;16.43;;
3589;SDS011;1809;48.470;9.226;2023-01-23T01:28:47;30.87;;;15.17;;
3589;SDS011;1809;48.470;9.226;2023-01-23T01:31:14;31.13;;;16.27;;
3589;SDS011;1809;48.470;9.226;2023-01-23T01:33:40;30.53;;;16.57;;
3589;SDS011;1809;48.470;9.226;2023-01-23T01:36:17;30.13;;;16.80;;
3589;SDS011;1809;48.470;9.226;2023-01-23T01:38:44;29.30;;;17.40;;
3589;SDS011;1809;48.470;9.226;2023-01-23T01:41:09;28.10;;;16.00;;
3589;SDS011;1809;48.470;9.226;2023-01-23T01:43:36;30.70;;;16.13;;
3589;SDS011;1809;48.470;9.226;2023-01-23T01:51:48;31.97;;;16.10;;
3589;SDS011;1809;48.470;9.226;2023-01-23T01:57:27;25.33;;;14.70;;
3589;SDS011;1809;48.470;9.226;2023-01-23T02:02:28;24.67;;;14.67;;
3589;SDS011;1809;48.470;9.226;2023-01-23T02:05:03;26.80;;;15.20;;
3589;SDS011;1809;48.470;9.226;2023-01-23T02:07:37;28.97;;;14.50;;
3589;SDS011;1809;48.470;9.226;2023-01-23T02:10:08;26.33;;;13.03;;
3589;SDS011;1809;48.470;9.226;2023-01-23T02:12:34;29.37;;;15.90;;
3589;SDS011;1809;48.470;9.226;2023-01-23T02:15:03;35.43;;;18.90;;
3589;SDS011;1809;48.470;9.226;2023-01-23T02:17:30;36.47;;;19.00;;
3589;SDS011;1809;48.470;9.226;2023-01-23T02:20:18;31.73;;;16.97;;
3589;SDS011;1809;48.470;9.226;2023-01-23T02:25:27;29.50;;;16.50;;
3589;SDS011;1809;48.470;9.226;2023-01-23T02:28:00;24.60;;;13.10;;
3589;SDS011;1809;48.470;9.226;2023-01-23T02:30:26;26.07;;;14.67;;
3589;SDS011;1809;48.470;9.226;2023-01-23T02:32:52;23.17;;;13.13;;
3589;SDS011;1809;48.470;9.226;2023-01-23T02:35:19;24.63;;;13.17;;
3589;SDS011;1809;48.470;9.226;2023-01-23T02:37:48;24.30;;;13.70;;
3589;SDS011;1809;48.470;9.226;2023-01-23T02:40:18;22.00;;;12.40;;
3589;SDS011;1809;48.470;9.226;2023-01-23T02:42:46;24.13;;;13.17;;
3589;SDS011;1809;48.470;9.226;2023-01-23T02:45:13;23.17;;;13.93;;
3589;SDS011;1809;48.470;9.226;2023-01-23T02:47:38;26.13;;;14.27;;
3589;SDS011;1809;48.470;9.226;2023-01-23T02:50:03;25.40;;;13.63;;
3589;SDS011;1809;48.470;9.226;2023-01-23T02:52:29;21.10;;;12.37;;
3589;SDS011;1809;48.470;9.226;2023-01-23T02:54:55;27.20;;;14.87;;
3589;SDS011;1809;48.470;9.226;2023-01-23T02:57:21;26.63;;;14.20;;
3589;SDS011;1809;48.470;9.226;2023-01-23T02:59:46;28.87;;;14.20;;
3589;SDS011;1809;48.470;9.226;2023-01-23T03:02:30;26.03;;;15.33;;
3589;SDS011;1809;48.470;9.226;2023-01-23T03:04:55;28.50;;;14.90;;
3589;SDS011;1809;48.470;9.226;2023-01-23T03:07:20;23.47;;;13.90;;
3589;SDS011;1809;48.470;9.226;2023-01-23T03:09:46;28.40;;;14.70;;
3589;SDS011;1809;48.470;9.226;2023-01-23T03:12:12;27.30;;;15.10;;
3589;SDS011;1809;48.470;9.226;2023-01-23T03:14:39;27.37;;;14.93;;
3589;SDS011;1809;48.470;9.226;2023-01-23T03:17:05;38.40;;;19.80;;
3589;SDS011;1809;48.470;9.226;2023-01-23T03:19:31;25.30;;;13.03;;
3589;SDS011;1809;48.470;9.226;2023-01-23T03:21:56;23.67;;;13.27;;
3589;SDS011;1809;48.470;9.226;2023-01-23T03:24:22;24.20;;;13.17;;
3589;SDS011;1809;48.470;9.226;2023-01-23T03:26:47;24.10;;;13.63;;
3589;SDS011;1809;48.470;9.226;2023-01-23T03:29:16;24.43;;;13.40;;
3589;SDS011;1809;48.470;9.226;2023-01-23T03:32:08;22.60;;;13.73;;
3589;SDS011;1809;48.470;9.226;2023-01-23T03:34:38;26.97;;;13.53;;
3589;SDS011;1809;48.470;9.226;2023-01-23T03:37:05;23.73;;;14.30;;
3589;SDS011;1809;48.470;9.226;2023-01-23T03:39:32;22.13;;;14.30;;
3589;SDS011;1809;48.470;9.226;2023-01-23T03:42:18;19.77;;;12.03;;
3589;SDS011;1809;48.470;9.226;2023-01-23T03:44:44;22.80;;;12.67;;
3589;SDS011;1809;48.470;9.226;2023-01-23T03:47:10;22.57;;;12.60;;
3589;SDS011;1809;48.470;9.226;2023-01-23T03:49:35;30.37;;;15.77;;
3589;SDS011;1809;48.470;9.226;2023-01-23T03:52:01;23.23;;;13.83;;
3589;SDS011;1809;48.470;9.226;2023-01-23T03:54:27;21.97;;;13.23;;
3589;SDS011;1809;48.470;9.226;2023-01-23T03:56:53;25.00;;;13.40;;
3589;SDS011;1809;48.470;9.226;2023-01-23T03:59:19;24.23;;;14.13;;
3589;SDS011;1809;48.470;9.226;2023-01-23T04:01:45;25.40;;;14.37;;
3589;SDS011;1809;48.470;9.226;2023-01-23T04:04:12;24.00;;;13.03;;
3589;SDS011;1809;48.470;9.226;2023-01-23T04:06:38;21.83;;;13.83;;
3589;SDS011;1809;48.470;9.226;2023-01-23T04:09:04;27.53;;;14.73;;
3589;SDS011;1809;48.470;9.226;2023-01-23T04:11:30;27.97;;;15.13;;
3589;SDS011;1809;48.470;9.226;2023-01-23T04:13:55;25.50;;;15.30;;
3589;SDS011;1809;48.470;9.226;2023-01-23T04:16:22;22.90;;;14.03;;
3589;SDS011;1809;48.470;9.226;2023-01-23T04:18:48;29.37;;;15.47;;
3589;SDS011;1809;48.470;9.226;2023-01-23T04:21:15;31.70;;;16.17;;
3589;SDS011;1809;48.470;9.226;2023-01-23T04:23:41;27.10;;;14.03;;
3589;SDS011;1809;48.470;9.226;2023-01-23T04:26:07;24.87;;;14.00;;
3589;SDS011;1809;48.470;9.226;2023-01-23T04:28:32;25.70;;;14.50;;
3589;SDS011;1809;48.470;9.226;2023-01-23T04:30:58;21.73;;;13.07;;
3589;SDS011;1809;48.470;9.226;2023-01-23T04:33:24;26.00;;;14.97;;
3589;SDS011;1809;48.470;9.226;2023-01-23T04:35:53;22.97;;;13.50;;
3589;SDS011;1809;48.470;9.226;2023-01-23T04:38:28;23.47;;;14.50;;
3589;SDS011;1809;48.470;9.226;2023-01-23T04:40:55;25.57;;;15.00;;
3589;SDS011;1809;48.470;9.226;2023-01-23T04:43:21;28.80;;;15.77;;
3589;SDS011;1809;48.470;9.226;2023-01-23T04:45:50;24.63;;;14.47;;
3589;SDS011;1809;48.470;9.226;2023-01-23T04:48:17;28.67;;;14.33;;
3589;SDS011;1809;48.470;9.226;2023-01-23T04:50:46;31.80;;;14.87;;
3589;SDS011;1809;48.470;9.226;2023-01-23T04:53:12;24.57;;;13.83;;
3589;SDS011;1809;48.470;9.226;2023-01-23T04:55:39;28.47;;;14.43;;
3589;SDS011;1809;48.470;9.226;2023-01-23T04:58:07;26.93;;;14.60;;
3589;SDS011;1809;48.470;9.226;2023-01-23T05:00:35;22.93;;;14.33;;
3589;SDS011;1809;48.470;9.226;2023-01-23T05:03:01;25.20;;;14.87;;
3589;SDS011;1809;48.470;9.226;2023-01-23T05:05:27;30.13;;;15.13;;
3589;SDS011;1809;48.470;9.226;2023-01-23T05:07:56;28.50;;;13.87;;
3589;SDS011;1809;48.470;9.226;2023-01-23T05:10:21;28.60;;;15.90;;
3589;SDS011;1809;48.470;9.226;2023-01-23T05:12:47;34.10;;;16.67;;
3589;SDS011;1809;48.470;9.226;2023-01-23T05:15:13;31.73;;;16.37;;
3589;SDS011;1809;48.470;9.226;2023-01-23T05:17:39;29.90;;;16.30;;
3589;SDS011;1809;48.470;9.226;2023-01-23T05:20:05;25.20;;;14.07;;
3589;SDS011;1809;48.470;9.226;2023-01-23T05:22:31;27.00;;;15.50;;
3589;SDS011;1809;48.470;9.226;2023-01-23T05:24:57;29.60;;;16.97;;
3589;SDS011;1809;48.470;9.226;2023-01-23T05:27:23;25.07;;;15.23;;
3589;SDS011;1809;48.470;9.226;2023-01-23T05:29:48;25.00;;;14.83;;
3589;SDS011;1809;48.470;9.226;2023-01-23T05:32:14;28.70;;;15.53;;
3589;SDS011;1809;48.470;9.226;2023-01-23T05:34:43;26.70;;;15.33;;
3589;SDS011;1809;48.470;9.226;2023-01-23T05:37:09;28.57;;;16.00;;
3589;SDS011;1809;48.470;9.226;2023-01-23T05:39:34;31.67;;;16.30;;
3589;SDS011;1809;48.470;9.226;2023-01-23T05:42:00;29.90;;;16.90;;
3589;SDS011;1809;48.470;9.226;2023-01-23T05:44:26;34.53;;;18.33;;
3589;SDS011;1809;48.470;9.226;2023-01-23T05:46:52;70.07;;;32.47;;
3589;SDS011;1809;48.470;9.226;2023-01-23T05:49:21;47.23;;;23.10;;
3589;SDS011;1809;48.470;9.226;2023-01-23T05:51:46;110.60;;;45.77;;
3589;SDS011;1809;48.470;9.226;2023-01-23T05:54:12;67.53;;;30.33;;
3589;SDS011;1809;48.470;9.226;2023-01-23T05:56:38;43.13;;;21.10;;
3589;SDS011;1809;48.470;9.226;2023-01-23T05:59:03;44.60;;;20.47;;
3589;SDS011;1809;48.470;9.226;2023-01-23T06:01:29;35.20;;;19.30;;
3589;SDS011;1809;48.470;9.226;2023-01-23T06:04:01;35.77;;;19.50;;
3589;SDS011;1809;48.470;9.226;2023-01-23T06:06:30;28.77;;;15.50;;
3589;SDS011;1809;48.470;9.226;2023-01-23T06:08:57;32.80;;;16.70;;
3589;SDS011;1809;48.470;9.226;2023-01-23T06:11:23;28.80;;;15.30;;
3589;SDS011;1809;48.470;9.226;2023-01-23T06:13:54;26.67;;;14.30;;
3589;SDS011;1809;48.470;9.226;2023-01-23T06:16:20;29.60;;;16.10;;
3589;SDS011;1809;48.470;9.226;2023-01-23T06:18:48;29.90;;;15.10;;
3589;SDS011;1809;48.470;9.226;2023-01-23T06:21:14;27.33;;;14.70;;
3589;SDS011;1809;48.470;9.226;2023-01-23T06:23:42;29.40;;;15.40;;
3589;SDS011;1809;48.470;9.226;2023-01-23T06:26:13;37.70;;;16.00;;
3589;SDS011;1809;48.470;9.226;2023-01-23T06:28:51;29.20;;;15.77;;
3589;SDS011;1809;48.470;9.226;2023-01-23T06:31:19;35.97;;;17.70;;
3589;SDS011;1809;48.470;9.226;2023-01-23T06:33:48;33.23;;;17.37;;
3589;SDS011;1809;48.470;9.226;2023-01-23T06:36:19;30.00;;;16.60;;
3589;SDS011;1809;48.470;9.226;2023-01-23T06:38:48;33.30;;;17.00;;
3589;SDS011;1809;48.470;9.226;2023-01-23T06:41:15;32.57;;;16.50;;
3589;SDS011;1809;48.470;9.226;2023-01-23T06:43:43;27.83;;;16.13;;
3589;SDS011;1809;48.470;9.226;2023-01-23T06:46:10;35.07;;;17.23;;
3589;SDS011;1809;48.470;9.226;2023-01-23T06:48:36;28.63;;;15.93;;
3589;SDS011;1809;48.470;9.226;2023-01-23T06:51:03;27.80;;;16.43;;
3589;SDS011;1809;48.470;9.226;2023-01-23T06:53:32;31.07;;;16.00;;
3589;SDS011;1809;48.470;9.226;2023-01-23T06:56:05;34.70;;;16.53;;
3589;SDS011;1809;48.470;9.226;2023-01-23T06:58:32;25.00;;;13.97;;
3589;SDS011;1809;48.470;9.226;2023-01-23T07:01:12;33.53;;;16.93;;
3589;SDS011;1809;48.470;9.226;2023-01-23T07:03:45;34.87;;;15.60;;
3589;SDS011;1809;48.470;9.226;2023-01-23T07:06:14;28.30;;;14.77;;
3589;SDS011;1809;48.470;9.226;2023-01-23T07:08:43;24.07;;;14.43;;
3589;SDS011;1809;48.470;9.226;2023-01-23T07:11:09;25.73;;;13.67;;
3589;SDS011;1809;48.470;9.226;2023-01-23T07:13:37;24.20;;;13.43;;
3589;SDS011;1809;48.470;9.226;2023-01-23T07:16:03;27.50;;;14.90;;
3589;SDS011;1809;48.470;9.226;2023-01-23T07:18:29;26.80;;;13.80;;
3589;SDS011;1809;48.470;9.226;2023-01-23T07:20:56;25.50;;;13.47;;
3589;SDS011;1809;48.470;9.226;2023-01-23T07:23:22;31.10;;;14.43;;
3589;SDS011;1809;48.470;9.226;2023-01-23T07:25:50;33.67;;;14.10;;
3589;SDS011;1809;48.470;9.226;2023-01-23T07:28:22;26.33;;;14.40;;
3589;SDS011;1809;48.470;9.226;2023-01-23T07:30:50;26.40;;;13.90;;
3589;SDS011;1809;48.470;9.226;2023-01-23T07:33:16;22.13;;;13.07;;
3589;SDS011;1809;48.470;9.226;2023-01-23T07:35:45;24.53;;;13.13;;
3589;SDS011;1809;48.470;9.226;2023-01-23T07:38:14;27.83;;;13.60;;
3589;SDS011;1809;48.470;9.226;2023-01-23T07:40:39;31.23;;;14.60;;
3589;SDS011;1809;48.470;9.226;2023-01-23T07:43:17;31.27;;;15.13;;
3589;SDS011;1809;48.470;9.226;2023-01-23T07:45:46;25.37;;;14.47;;
3589;SDS011;1809;48.470;9.226;2023-01-23T07:48:15;22.20;;;12.57;;
3589;SDS011;1809;48.470;9.226;2023-01-23T07:50:43;26.97;;;13.93;;
3589;SDS011;1809;48.470;9.226;2023-01-23T07:53:09;22.50;;;12.30;;
3589;SDS011;1809;48.470;9.226;2023-01-23T07:55:36;27.93;;;12.83;;
3589;SDS011;1809;48.470;9.226;2023-01-23T07:58:11;38.30;;;13.63;;
3589;SDS011;1809;48.470;9.226;2023-01-23T08:00:39;23.30;;;11.70;;
3589;SDS011;1809;48.470;9.226;2023-01-23T08:03:14;23.33;;;13.03;;
3589;SDS011;1809;48.470;9.226;2023-01-23T08:05:52;20.60;;;13.10;;
3589;SDS011;1809;48.470;9.226;2023-01-23T08:08:24;19.57;;;11.30;;
3589;SDS011;1809;48.470;9.226;2023-01-23T08:10:55;21.67;;;12.20;;
3589;SDS011;1809;48.470;9.226;2023-01-23T08:13:21;20.27;;;12.00;;
3589;SDS011;1809;48.470;9.226;2023-01-23T08:15:47;20.63;;;11.10;;
3589;SDS011;1809;48.470;9.226;2023-01-23T08:18:13;24.57;;;14.60;;
3589;SDS011;1809;48.470;9.226;2023-01-23T08:20:39;18.57;;;11.30;;
3589;SDS011;1809;48.470;9.226;2023-01-23T08:23:05;18.73;;;10.77;;
3589;SDS011;1809;48.470;9.226;2023-01-23T08:25:31;16.10;;;10.47;;
3589;SDS011;1809;48.470;9.226;2023-01-23T08:28:01;19.73;;;11.53;;
3589;SDS011;1809;48.470;9.226;2023-01-23T08:30:30;30.60;;;14.50;;
3589;SDS011;1809;48.470;9.226;2023-01-23T08:33:02;17.17;;;10.70;;
3589;SDS011;1809;48.470;9.226;2023-01-23T08:35:30;25.50;;;11.10;;
3589;SDS011;1809;48.470;9.226;2023-01-23T08:37:56;27.23;;;11.10;;
3589;SDS011;1809;48.470;9.226;2023-01-23T08:40:28;19.50;;;11.40;;
3589;SDS011;1809;48.470;9.226;2023-01-23T08:42:54;18.90;;;11.30;;
3589;SDS011;1809;48.470;9.226;2023-01-23T08:45:20;24.90;;;13.50;;
3589;SDS011;1809;48.470;9.226;2023-01-23T08:47:55;18.73;;;10.20;;
3589;SDS011;1809;48.470;9.226;2023-01-23T08:50:21;19.17;;;10.70;;
3589;SDS011;1809;48.470;9.226;2023-01-23T08:52:48;16.50;;;10.23;;
3589;SDS011;1809;48.470;9.226;2023-01-23T08:55:22;16.93;;;10.30;;
3589;SDS011;1809;48.470;9.226;2023-01-23T08:57:57;18.63;;;10.90;;
3589;SDS011;1809;48.470;9.226;2023-01-23T09:00:33;17.93;;;10.10;;
3589;SDS011;1809;48.470;9.226;2023-01-23T09:03:02;17.03;;;9.67;;
3589;SDS011;1809;48.470;9.226;2023-01-23T09:05:34;16.70;;;10.40;;
3589;SDS011;1809;48.470;9.226;2023-01-23T09:08:09;23.03;;;12.57;;
3589;SDS011;1809;48.470;9.226;2023-01-23T09:10:46;16.10;;;10.50;;
3589;SDS011;1809;48.470;9.226;2023-01-23T09:13:17;18.70;;;10.73;;
3589;SDS011;1809;48.470;9.226;2023-01-23T09:15:47;14.13;;;9.67;;
3589;SDS011;1809;48.470;9.226;2023-01-23T09:18:13;15.37;;;9.70;;
3589;SDS011;1809;48.470;9.226;2023-01-23T09:20:42;19.67;;;10.53;;
3589;SDS011;1809;48.470;9.226;2023-01-23T09:23:11;17.67;;;10.10;;
3589;SDS011;1809;48.470;9.226;2023-01-23T09:25:40;20.80;;;11.33;;
3589;SDS011;1809;48.470;9.226;2023-01-23T09:28:08;16.57;;;10.10;;
3589;SDS011;1809;48.470;9.226;2023-01-23T09:30:34;18.27;;;11.50;;
3589;SDS011;1809;48.470;9.226;2023-01-23T09:32:59;18.80;;;10.07;;
3589;SDS011;1809;48.470;9.226;2023-01-23T09:35:25;16.97;;;9.77;;
3589;SDS011;1809;48.470;9.226;2023-01-23T09:37:50;18.07;;;9.60;;
3589;SDS011;1809;48.470;9.226;2023-01-23T09:40:42;18.47;;;10.27;;
3589;SDS011;1809;48.470;9.226;2023-01-23T09:43:21;16.60;;;10.50;;
3589;SDS011;1809;48.470;9.226;2023-01-23T09:45:56;16.90;;;9.60;;
3589;SDS011;1809;48.470;9.226;2023-01-23T09:54:07;18.07;;;10.40;;
3589;SDS011;1809;48.470;9.226;2023-01-23T09:56:44;22.03;;;12.00;;
3589;SDS011;1809;48.470;9.226;2023-01-23T10:01:52;15.97;;;10.00;;
3589;SDS011;1809;48.470;9.226;2023-01-23T10:04:18;17.37;;;10.87;;
3589;SDS011;1809;48.470;9.226;2023-01-23T10:12:12;17.10;;;9.90;;
3589;SDS011;1809;48.470;9.226;2023-01-23T10:17:46;19.17;;;10.80;;
3589;SDS011;1809;48.470;9.226;2023-01-23T10:20:21;17.40;;;9.63;;
3589;SDS011;1809;48.470;9.226;2023-01-23T10:23:16;15.40;;;9.90;;
3589;SDS011;1809;48.470;9.226;2023-01-23T10:26:02;14.13;;;9.13;;
3589;SDS011;1809;48.470;9.226;2023-01-23T10:28:32;16.00;;;10.03;;
3589;SDS011;1809;48.470;9.226;2023-01-23T10:31:18;20.53;;;10.97;;
3589;SDS011;1809;48.470;9.226;2023-01-23T10:36:24;19.70;;;11.73;;
3589;SDS011;1809;48.470;9.226;2023-01-23T10:39:02;27.80;;;13.20;;
3589;SDS011;1809;48.470;9.226;2023-01-23T10:41:31;19.00;;;10.53;;
3589;SDS011;1809;48.470;9.226;2023-01-23T10:43:58;28.20;;;13.13;;
3589;SDS011;1809;48.470;9.226;2023-01-23T10:46:34;20.30;;;11.83;;
3589;SDS011;1809;48.470;9.226;2023-01-23T10:49:09;27.97;;;11.47;;
3589;SDS011;1809;48.470;9.226;2023-01-23T10:56:46;21.07;;;12.50;;
3589;SDS011;1809;48.470;9.226;2023-01-23T11:02:29;22.10;;;12.77;;
3589;SDS011;1809;48.470;9.226;2023-01-23T11:04:57;26.00;;;14.10;;
3589;SDS011;1809;48.470;9.226;2023-01-23T11:07:26;22.83;;;12.57;;
3589;SDS011;1809;48.470;9.226;2023-01-23T11:12:47;23.47;;;13.50;;
3589;SDS011;1809;48.470;9.226;2023-01-23T11:15:23;37.23;;;18.37;;
3589;SDS011;1809;48.470;9.226;2023-01-23T11:17:54;31.57;;;14.90;;
3589;SDS011;1809;48.470;9.226;2023-01-23T11:20:32;19.80;;;11.80;;
3589;SDS011;1809;48.470;9.226;2023-01-23T11:25:36;44.63;;;13.30;;
3589;SDS011;1809;48.470;9.226;2023-01-23T11:28:25;25.17;;;13.37;;
3589;SDS011;1809;48.470;9.226;2023-01-23T11:31:09;19.70;;;11.50;;
3589;SDS011;1809;48.470;9.226;2023-01-23T11:33:40;18.60;;;10.23;;
3589;SDS011;1809;48.470;9.226;2023-01-23T11:38:58;22.43;;;12.43;;
3589;SDS011;1809;48.470;9.226;2023-01-23T11:41:32;18.70;;;11.37;;
3589;SDS011;1809;48.470;9.226;2023-01-23T11:44:05;20.03;;;11.00;;
3589;SDS011;1809;48.470;9.226;2023-01-23T11:46:40;21.43;;;11.63;;
3589;SDS011;1809;48.470;9.226;2023-01-23T12:03:39;19.20;;;11.40;;
3589;SDS011;1809;48.470;9.226;2023-01-23T12:08:47;21.30;;;10.73;;
3589;SDS011;1809;48.470;9.226;2023-01-23T12:11:30;18.93;;;11.37;;
3589;SDS011;1809;48.470;9.226;2023-01-23T12:14:20;20.03;;;11.00;;
3589;SDS011;1809;48.470;9.226;2023-01-23T12:27:49;22.07;;;11.63;;
3589;SDS011;1809;48.470;9.226;2023-01-23T12:32:56;21.90;;;13.73;;
3589;SDS011;1809;48.470;9.226;2023-01-23T12:43:56;23.77;;;13.70;;
3589;SDS011;1809;48.470;9.226;2023-01-23T12:46:47;22.63;;;12.03;;
3589;SDS011;1809;48.470;9.226;2023-01-23T12:52:01;22.80;;;13.00;;
3589;SDS011;1809;48.470;9.226;2023-01-23T12:54:35;23.93;;;12.40;;
3589;SDS011;1809;48.470;9.226;2023-01-23T12:57:10;41.13;;;13.30;;
3589;SDS011;1809;48.470;9.226;2023-01-23T12:59:43;22.73;;;12.70;;
3589;SDS011;1809;48.470;9.226;2023-01-23T13:02:37;23.43;;;11.87;;
3589;SDS011;1809;48.470;9.226;2023-01-23T13:05:20;24.87;;;13.80;;
3589;SDS011;1809;48.470;9.226;2023-01-23T13:08:01;23.93;;;12.00;;
3589;SDS011;1809;48.470;9.226;2023-01-23T13:14:35;24.00;;;12.90;;
3589;SDS011;1809;48.470;9.226;2023-01-23T13:20:06;20.67;;;11.30;;
3589;SDS011;1809;48.470;9.226;2023-01-23T13:23:29;25.80;;;13.70;;
3589;SDS011;1809;48.470;9.226;2023-01-23T13:28:42;28.27;;;14.30;;
3589;SDS011;1809;48.470;9.226;2023-01-23T13:34:02;28.03;;;14.33;;
3589;SDS011;1809;48.470;9.226;2023-01-23T13:36:51;22.97;;;12.70;;
3589;SDS011;1809;48.470;9.226;2023-01-23T13:39:22;25.50;;;13.27;;
3589;SDS011;1809;48.470;9.226;2023-01-23T13:42:32;25.87;;;13.70;;
3589;SDS011;1809;48.470;9.226;2023-01-23T13:47:53;22.20;;;12.70;;
3589;SDS011;1809;48.470;9.226;2023-01-23T13:50:40;23.47;;;12.80;;
3589;SDS011;1809;48.470;9.226;2023-01-23T13:53:14;25.00;;;13.23;;
3589;SDS011;1809;48.470;9.226;2023-01-23T13:56:00;25.67;;;12.83;;
3589;SDS011;1809;48.470;9.226;2023-01-23T13:58:46;22.30;;;12.63;;
3589;SDS011;1809;48.470;9.226;2023-01-23T14:01:17;22.80;;;13.43;;
3589;SDS011;1809;48.470;9.226;2023-01-23T14:04:04;23.33;;;14.30;;
3589;SDS011;1809;48.470;9.226;2023-01-23T14:06:55;20.40;;;12.33;;
3589;SDS011;1809;48.470;9.226;2023-01-23T14:09:22;20.23;;;11.70;;
3589;SDS011;1809;48.470;9.226;2023-01-23T14:11:59;23.73;;;12.40;;
3589;SDS011;1809;48.470;9.226;2023-01-23T14:14:36;22.47;;;12.50;;
3589;SDS011;1809;48.470;9.226;2023-01-23T14:17:21;23.80;;;11.90;;
3589;SDS011;1809;48.470;9.226;2023-01-23T14:19:51;21.97;;;13.40;;
3589;SDS011;1809;48.470;9.226;2023-01-23T14:22:19;23.43;;;12.13;;
3589;SDS011;1809;48.470;9.226;2023-01-23T14:24:47;18.20;;;11.53;;
3589;SDS011;1809;48.470;9.226;2023-01-23T14:27:35;20.13;;;11.47;;
3589;SDS011;1809;48.470;9.226;2023-01-23T14:30:15;26.63;;;14.90;;
3589;SDS011;1809;48.470;9.226;2023-01-23T14:32:43;27.07;;;15.50;;
3589;SDS011;1809;48.470;9.226;2023-01-23T14:35:23;39.97;;;20.47;;
3589;SDS011;1809;48.470;9.226;2023-01-23T14:37:51;70.50;;;30.93;;
3589;SDS011;1809;48.470;9.226;2023-01-23T14:40:20;27.27;;;14.13;;
3589;SDS011;1809;48.470;9.226;2023-01-23T14:43:03;23.93;;;12.47;;
3589;SDS011;1809;48.470;9.226;2023-01-23T14:45:31;22.50;;;12.30;;
3589;SDS011;1809;48.470;9.226;2023-01-23T14:47:57;33.23;;;12.60;;
3589;SDS011;1809;48.470;9.226;2023-01-23T14:50:24;24.07;;;12.73;;
3589;SDS011;1809;48.470;9.226;2023-01-23T14:52:57;22.37;;;11.67;;
3589;SDS011;1809;48.470;9.226;2023-01-23T14:55:25;20.50;;;11.67;;
3589;SDS011;1809;48.470;9.226;2023-01-23T14:57:53;20.23;;;10.80;;
3589;SDS011;1809;48.470;9.226;2023-01-23T15:00:19;24.57;;;11.43;;
3589;SDS011;1809;48.470;9.226;2023-01-23T15:02:46;19.60;;;11.93;;
3589;SDS011;1809;48.470;9.226;2023-01-23T15:13:00;18.10;;;10.53;;
3589;SDS011;1809;48.470;9.226;2023-01-23T15:15:28;26.10;;;14.20;;
3589;SDS011;1809;48.470;9.226;2023-01-23T15:17:55;21.90;;;11.83;;
3589;SDS011;1809;48.470;9.226;2023-01-23T15:20:27;23.80;;;12.30;;
3589;SDS011;1809;48.470;9.226;2023-01-23T15:22:55;16.67;;;11.53;;
3589;SDS011;1809;48.470;9.226;2023-01-23T15:25:31;19.07;;;10.57;;
3589;SDS011;1809;48.470;9.226;2023-01-23T15:27:57;19.93;;;11.70;;
3589;SDS011;1809;48.470;9.226;2023-01-23T15:32:57;21.60;;;12.07;;
3589;SDS011;1809;48.470;9.226;2023-01-23T15:35:29;20.90;;;11.87;;
3589;SDS011;1809;48.470;9.226;2023-01-23T15:37:57;20.37;;;11.80;;
3589;SDS011;1809;48.470;9.226;2023-01-23T15:40:28;23.43;;;12.67;;
3589;SDS011;1809;48.470;9.226;2023-01-23T15:43:08;20.13;;;11.77;;
3589;SDS011;1809;48.470;9.226;2023-01-23T15:45:36;19.43;;;11.77;;
3589;SDS011;1809;48.470;9.226;2023-01-23T15:48:01;27.67;;;12.93;;
3589;SDS011;1809;48.470;9.226;2023-01-23T15:50:26;19.60;;;11.77;;
3589;SDS011;1809;48.470;9.226;2023-01-23T15:52:53;21.97;;;12.33;;
3589;SDS011;1809;48.470;9.226;2023-01-23T15:55:20;21.30;;;11.90;;
3589;SDS011;1809;48.470;9.226;2023-01-23T15:57:48;20.07;;;11.87;;
3589;SDS011;1809;48.470;9.226;2023-01-23T16:00:17;24.33;;;12.93;;
3589;SDS011;1809;48.470;9.226;2023-01-23T16:02:51;21.30;;;11.83;;
3589;SDS011;1809;48.470;9.226;2023-01-23T16:05:18;18.60;;;11.87;;
3589;SDS011;1809;48.470;9.226;2023-01-23T16:07:47;17.50;;;10.80;;
3589;SDS011;1809;48.470;9.226;2023-01-23T16:10:23;36.53;;;16.80;;
3589;SDS011;1809;48.470;9.226;2023-01-23T16:12:51;22.97;;;13.47;;
3589;SDS011;1809;48.470;9.226;2023-01-23T16:17:44;19.60;;;12.40;;
3589;SDS011;1809;48.470;9.226;2023-01-23T16:20:19;24.37;;;13.73;;
3589;SDS011;1809;48.470;9.226;2023-01-23T16:22:50;21.77;;;12.50;;
3589;SDS011;1809;48.470;9.226;2023-01-23T16:25:19;18.47;;;11.80;;
3589;SDS011;1809;48.470;9.226;2023-01-23T16:27:53;25.87;;;14.70;;
3589;SDS011;1809;48.470;9.226;2023-01-23T16:30:20;24.47;;;12.77;;
3589;SDS011;1809;48.470;9.226;2023-01-23T16:32:47;21.40;;;13.33;;
3589;SDS011;1809;48.470;9.226;2023-01-23T16:35:12;27.63;;;14.37;;
3589;SDS011;1809;48.470;9.226;2023-01-23T16:37:43;25.17;;;13.30;;
3589;SDS011;1809;48.470;9.226;2023-01-23T16:40:16;23.30;;;12.20;;
3589;SDS011;1809;48.470;9.226;2023-01-23T16:42:45;22.50;;;13.13;;
3589;SDS011;1809;48.470;9.226;2023-01-23T16:47:42;27.27;;;13.63;;
3589;SDS011;1809;48.470;9.226;2023-01-23T16:50:18;23.60;;;12.17;;
3589;SDS011;1809;48.470;9.226;2023-01-23T16:53:04;28.07;;;13.80;;
3589;SDS011;1809;48.470;9.226;2023-01-23T16:55:34;27.23;;;14.63;;
3589;SDS011;1809;48.470;9.226;2023-01-23T16:58:02;30.27;;;15.70;;
3589;SDS011;1809;48.470;9.226;2023-01-23T17:00:30;34.37;;;17.50;;
3589;SDS011;1809;48.470;9.226;2023-01-23T17:02:57;25.57;;;14.03;;
3589;SDS011;1809;48.470;9.226;2023-01-23T17:05:25;38.00;;;18.10;;
3589;SDS011;1809;48.470;9.226;2023-01-23T17:07:51;27.70;;;14.30;;
3589;SDS011;1809;48.470;9.226;2023-01-23T17:10:17;28.70;;;15.50;;